createdAt,value
2018-09-06T00:01:13.577Z,14.30
2018-09-06T00:03:42.301Z,14.03
2018-09-06T00:06:10.923Z,14.20
2018-09-06T00:08:39.550Z,13.83
2018-09-06T00:11:08.239Z,14.67
2018-09-06T00:13:37.420Z,15.10
2018-09-06T00:16:06.468Z,15.57
2018-09-06T00:18:35.056Z,14.50
2018-09-06T00:21:03.704Z,14.67
2018-09-06T00:23:32.288Z,15.93
2018-09-06T00:26:00.938Z,15.23
2018-09-06T00:28:29.524Z,14.90
2018-09-06T00:30:58.116Z,16.47
2018-09-06T00:33:26.704Z,15.20
2018-09-06T00:35:55.337Z,15.60
2018-09-06T00:38:24.026Z,14.90
2018-09-06T00:40:52.680Z,15.40
2018-09-06T00:43:21.277Z,14.23
2018-09-06T00:45:49.921Z,14.40
2018-09-06T00:48:18.608Z,14.43
2018-09-06T00:50:47.324Z,16.03
2018-09-06T00:53:15.933Z,16.17
2018-09-06T00:55:44.532Z,15.80
2018-09-06T00:58:13.141Z,16.53
2018-09-06T01:00:41.764Z,15.77
2018-09-06T01:03:10.410Z,15.10
2018-09-06T01:05:39.028Z,15.37
2018-09-06T01:08:07.645Z,16.17
2018-09-06T01:10:36.273Z,15.43
2018-09-06T01:13:04.881Z,15.93
2018-09-06T01:15:33.529Z,15.93
2018-09-06T01:18:02.136Z,17.03
2018-09-06T01:20:30.773Z,16.77
2018-09-06T01:22:59.381Z,16.20
2018-09-06T01:25:32.855Z,17.10
2018-09-06T01:28:01.505Z,17.63
2018-09-06T01:30:30.105Z,16.90
2018-09-06T01:32:58.702Z,17.57
2018-09-06T01:35:27.315Z,17.43
2018-09-06T01:37:55.933Z,18.00
2018-09-06T01:40:24.569Z,17.33
2018-09-06T01:42:53.318Z,18.33
2018-09-06T01:45:21.903Z,17.30
2018-09-06T01:47:50.484Z,17.63
2018-09-06T01:50:19.084Z,16.40
2018-09-06T01:52:47.740Z,16.47
2018-09-06T01:55:16.349Z,17.27
2018-09-06T01:57:44.945Z,16.87
2018-09-06T02:00:13.892Z,17.03
2018-09-06T02:02:42.480Z,17.47
2018-09-06T02:05:14.577Z,18.17
2018-09-06T02:07:43.182Z,17.60
2018-09-06T02:10:12.403Z,17.67
2018-09-06T02:12:41.396Z,17.33
2018-09-06T02:15:09.992Z,17.83
2018-09-06T02:17:38.623Z,17.33
2018-09-06T02:20:07.527Z,17.97
2018-09-06T02:22:36.391Z,17.90
2018-09-06T02:25:05.408Z,17.90
2018-09-06T02:27:34.009Z,17.20
2018-09-06T02:30:02.646Z,17.20
2018-09-06T02:32:31.254Z,17.40
2018-09-06T02:34:59.892Z,17.80
2018-09-06T02:37:28.476Z,17.37
2018-09-06T02:39:57.120Z,18.33
2018-09-06T02:42:25.789Z,19.10
2018-09-06T02:44:54.540Z,18.70
2018-09-06T02:47:23.117Z,17.57
2018-09-06T02:49:56.944Z,17.37
2018-09-06T02:52:25.534Z,18.20
2018-09-06T02:54:54.144Z,18.33
2018-09-06T02:57:22.732Z,19.13
2018-09-06T02:59:51.360Z,17.90
2018-09-06T03:02:19.963Z,18.87
2018-09-06T03:04:48.551Z,19.03
2018-09-06T03:07:17.512Z,18.77
2018-09-06T03:09:46.196Z,19.37
2018-09-06T03:12:14.960Z,20.67
2018-09-06T03:14:43.572Z,18.13
2018-09-06T03:17:12.238Z,19.93
2018-09-06T03:19:40.827Z,19.67
2018-09-06T03:22:09.429Z,18.87
2018-09-06T03:24:38.009Z,18.67
2018-09-06T03:27:07.090Z,18.97
2018-09-06T03:29:35.814Z,19.03
2018-09-06T03:32:04.400Z,18.47
2018-09-06T03:34:33.084Z,18.40
2018-09-06T03:37:01.703Z,17.83
2018-09-06T03:39:30.893Z,17.23
2018-09-06T03:41:59.723Z,16.90
2018-09-06T03:44:28.320Z,16.33
2018-09-06T03:46:56.926Z,19.63
2018-09-06T03:49:25.512Z,18.73
2018-09-06T03:51:54.556Z,18.93
2018-09-06T03:54:23.168Z,17.97
2018-09-06T03:56:51.780Z,17.00
2018-09-06T03:59:20.401Z,19.63
2018-09-06T04:01:48.998Z,18.90
2018-09-06T04:04:18.439Z,20.50
2018-09-06T04:06:47.092Z,19.37
2018-09-06T04:09:15.683Z,20.87
2018-09-06T04:11:44.273Z,21.27
2018-09-06T04:14:12.857Z,20.23
2018-09-06T04:16:41.450Z,21.67
2018-09-06T04:19:10.202Z,20.57
2018-09-06T04:21:39.869Z,20.80
2018-09-06T04:24:08.513Z,22.17
2018-09-06T04:26:37.316Z,21.00
2018-09-06T04:29:06.031Z,21.93
2018-09-06T04:31:34.669Z,21.10
2018-09-06T04:34:03.644Z,22.00
2018-09-06T04:36:32.292Z,20.73
2018-09-06T04:39:01.028Z,20.40
2018-09-06T04:41:29.667Z,19.90
2018-09-06T04:43:58.329Z,20.07
2018-09-06T04:46:26.952Z,19.10
2018-09-06T04:48:55.662Z,18.77
2018-09-06T04:51:24.333Z,17.63
2018-09-06T04:53:52.919Z,17.17
2018-09-06T04:56:21.580Z,16.40
2018-09-06T04:58:50.529Z,17.93
2018-09-06T05:01:19.135Z,16.87
2018-09-06T05:03:47.759Z,16.40
2018-09-06T05:06:16.744Z,17.17
2018-09-06T05:08:45.407Z,16.67
2018-09-06T05:11:14.216Z,16.80
2018-09-06T05:13:43.284Z,17.33
2018-09-06T05:16:11.872Z,16.40
2018-09-06T05:18:40.478Z,16.47
2018-09-06T05:21:09.831Z,16.07
2018-09-06T05:23:38.447Z,15.73
2018-09-06T05:26:07.133Z,16.33
2018-09-06T05:28:35.916Z,16.70
2018-09-06T05:31:04.527Z,16.33
2018-09-06T05:33:33.164Z,16.57
2018-09-06T05:36:01.987Z,16.20
2018-09-06T05:38:30.794Z,16.10
2018-09-06T05:40:59.420Z,16.07
2018-09-06T05:43:28.088Z,15.77
2018-09-06T05:45:56.712Z,16.03
2018-09-06T05:48:25.359Z,15.97
2018-09-06T05:50:54.036Z,15.67
2018-09-06T05:53:22.921Z,16.20
2018-09-06T05:55:51.792Z,15.60
2018-09-06T05:58:21.271Z,15.70
2018-09-06T06:00:50.527Z,16.37
2018-09-06T06:03:19.346Z,16.23
2018-09-06T06:05:48.049Z,16.23
2018-09-06T06:08:28.000Z,16.03
2018-09-06T06:10:56.978Z,16.20
2018-09-06T06:13:25.736Z,15.63
2018-09-06T06:15:54.334Z,15.43
2018-09-06T06:18:23.721Z,14.95
2018-09-06T06:20:52.984Z,19.42
2018-09-06T06:23:22.557Z,15.13
2018-09-06T06:25:51.733Z,14.73
2018-09-06T06:28:20.915Z,15.00
2018-09-06T06:30:50.082Z,14.07
2018-09-06T06:33:19.249Z,14.05
2018-09-06T06:35:48.925Z,14.15
2018-09-06T06:38:18.114Z,13.80
2018-09-06T06:40:47.288Z,14.90
2018-09-06T06:43:16.823Z,14.90
2018-09-06T06:45:46.066Z,15.35
2018-09-06T06:48:15.285Z,15.23
2018-09-06T06:50:44.493Z,15.10
2018-09-06T06:53:13.684Z,14.87
2018-09-06T06:55:42.879Z,15.68
2018-09-06T06:58:12.044Z,15.18
2018-09-06T07:00:42.232Z,14.83
2018-09-06T07:03:12.952Z,15.50
2018-09-06T07:05:42.881Z,14.98
2018-09-06T07:08:12.488Z,14.90
2018-09-06T07:10:41.804Z,14.93
2018-09-06T07:13:10.814Z,14.70
2018-09-06T07:15:39.773Z,14.67
2018-09-06T07:18:08.758Z,14.43
2018-09-06T07:20:37.874Z,15.47
2018-09-06T07:23:07.116Z,14.47
2018-09-06T07:25:36.048Z,14.50
2018-09-06T07:28:05.008Z,14.97
2018-09-06T07:30:34.282Z,14.73
2018-09-06T07:33:03.661Z,14.70
2018-09-06T07:35:32.837Z,14.35
2018-09-06T07:38:01.752Z,13.40
2018-09-06T07:40:30.970Z,14.10
2018-09-06T07:42:59.864Z,13.57
2018-09-06T07:45:28.952Z,14.00
2018-09-06T07:47:57.847Z,13.90
2018-09-06T07:50:26.774Z,12.00
2018-09-06T07:52:55.665Z,12.93
2018-09-06T07:55:24.572Z,13.30
2018-09-06T07:57:53.544Z,12.57
2018-09-06T08:00:22.461Z,14.67
2018-09-06T08:02:52.223Z,13.00
2018-09-06T08:05:21.103Z,13.33
2018-09-06T08:07:50.076Z,13.57
2018-09-06T08:10:19.049Z,13.37
2018-09-06T08:12:47.961Z,12.63
2018-09-06T08:15:17.188Z,12.43
2018-09-06T08:17:46.086Z,13.20
2018-09-06T08:20:15.024Z,12.67
2018-09-06T08:22:43.958Z,13.10
2018-09-06T08:25:12.953Z,13.40
2018-09-06T08:27:41.827Z,12.73
2018-09-06T08:30:10.769Z,12.63
2018-09-06T08:32:39.656Z,11.70
2018-09-06T08:35:08.669Z,10.63
2018-09-06T08:37:37.557Z,10.77
2018-09-06T08:40:06.464Z,11.23
2018-09-06T08:42:35.357Z,10.17
2018-09-06T08:45:04.307Z,10.40
2018-09-06T08:47:33.323Z,11.57
2018-09-06T08:50:02.355Z,11.47
2018-09-06T08:52:31.623Z,11.73
2018-09-06T08:55:00.984Z,10.98
2018-09-06T08:57:30.158Z,10.93
2018-09-06T08:59:59.679Z,11.60
2018-09-06T09:02:28.960Z,10.23
2018-09-06T09:04:58.247Z,10.45
2018-09-06T09:07:27.434Z,10.28
2018-09-06T09:09:56.820Z,10.43
2018-09-06T09:12:26.123Z,9.18
2018-09-06T09:14:55.460Z,9.20
2018-09-06T09:17:24.626Z,9.23
2018-09-06T09:19:53.823Z,9.35
2018-09-06T09:22:23.061Z,8.70
2018-09-06T09:24:52.420Z,9.15
2018-09-06T09:27:21.625Z,9.33
2018-09-06T09:29:50.809Z,9.35
2018-09-06T09:32:20.012Z,9.73
2018-09-06T09:34:49.546Z,9.45
2018-09-06T09:37:18.809Z,8.55
2018-09-06T09:39:48.320Z,8.48
2018-09-06T09:42:17.543Z,8.00
2018-09-06T09:44:46.706Z,8.08
2018-09-06T09:49:44.107Z,9.28
2018-09-06T09:52:13.333Z,8.15
2018-09-06T09:54:42.497Z,9.15
2018-09-06T09:57:11.725Z,8.50
2018-09-06T09:59:41.055Z,8.75
2018-09-06T10:02:15.538Z,8.55
2018-09-06T10:04:50.124Z,8.58
2018-09-06T10:07:24.648Z,8.60
2018-09-06T10:09:53.832Z,8.58
2018-09-06T10:12:23.106Z,9.00
2018-09-06T10:14:52.276Z,8.20
2018-09-06T10:17:21.432Z,8.93
2018-09-06T10:19:50.621Z,8.40
2018-09-06T10:22:19.799Z,9.13
2018-09-06T10:24:48.995Z,8.80
2018-09-06T10:27:18.196Z,9.15
2018-09-06T10:29:48.139Z,9.28
2018-09-06T10:32:17.304Z,9.25
2018-09-06T10:34:46.556Z,8.73
2018-09-06T10:37:16.764Z,8.30
2018-09-06T10:39:46.837Z,7.70
2018-09-06T10:42:16.055Z,8.05
2018-09-06T10:44:46.077Z,7.47
2018-09-06T10:47:15.597Z,8.15
2018-09-06T10:49:44.788Z,8.15
2018-09-06T10:52:14.030Z,7.97
2018-09-06T10:54:43.236Z,7.97
2018-09-06T10:57:12.398Z,7.15
2018-09-06T10:59:42.021Z,7.60
2018-09-06T11:02:11.583Z,7.62
2018-09-06T11:04:41.074Z,8.15
2018-09-06T11:07:10.630Z,7.92
2018-09-06T11:09:40.187Z,7.85
2018-09-06T11:12:09.450Z,8.20
2018-09-06T11:14:38.771Z,7.62
2018-09-06T11:17:08.443Z,7.50
2018-09-06T11:19:37.656Z,8.10
2018-09-06T11:22:07.442Z,7.65
2018-09-06T11:24:37.757Z,7.60
2018-09-06T11:27:07.077Z,7.75
2018-09-06T11:29:36.343Z,7.53
2018-09-06T11:32:05.683Z,8.03
2018-09-06T11:34:35.144Z,7.65
2018-09-06T11:37:04.645Z,7.60
2018-09-06T11:39:33.848Z,7.75
2018-09-06T11:42:03.289Z,7.60
2018-09-06T11:44:32.585Z,7.42
2018-09-06T11:47:01.847Z,7.28
2018-09-06T11:49:31.249Z,7.42
2018-09-06T11:52:00.470Z,7.22
2018-09-06T11:54:29.647Z,7.37
2018-09-06T11:56:59.240Z,7.37
2018-09-06T11:59:28.478Z,7.92
2018-09-06T12:01:58.145Z,7.83
2018-09-06T12:04:27.459Z,7.20
2018-09-06T12:06:56.693Z,7.75
2018-09-06T12:09:26.202Z,7.20
2018-09-06T12:11:55.494Z,7.87
2018-09-06T12:14:24.930Z,7.53
2018-09-06T12:16:54.286Z,7.60
2018-09-06T12:19:23.582Z,7.90
2018-09-06T12:21:53.034Z,6.80
2018-09-06T12:24:22.284Z,7.55
2018-09-06T12:26:51.488Z,7.60
2018-09-06T12:29:20.727Z,7.33
2018-09-06T12:31:50.008Z,6.97
2018-09-06T12:34:19.293Z,7.12
2018-09-06T12:36:48.592Z,7.05
2018-09-06T12:39:17.873Z,7.00
2018-09-06T12:41:47.696Z,7.10
2018-09-06T12:44:16.876Z,7.15
2018-09-06T12:46:46.124Z,7.45
2018-09-06T12:49:15.309Z,7.72
2018-09-06T12:51:44.487Z,7.53
2018-09-06T12:54:13.783Z,7.42
2018-09-06T12:56:43.029Z,7.53
2018-09-06T12:59:12.409Z,7.30
2018-09-06T13:01:41.668Z,7.85
2018-09-06T13:04:10.935Z,6.90
2018-09-06T13:06:40.146Z,7.40
2018-09-06T13:09:09.725Z,7.10
2018-09-06T13:11:39.302Z,7.22
2018-09-06T13:14:08.496Z,7.00
2018-09-06T13:16:37.693Z,8.65
2018-09-06T13:19:06.947Z,8.28
2018-09-06T13:21:36.426Z,10.40
2018-09-06T13:24:05.716Z,8.48
2018-09-06T13:26:34.961Z,9.53
2018-09-06T13:29:04.459Z,11.25
2018-09-06T13:31:33.701Z,9.33
2018-09-06T13:34:02.932Z,9.43
2018-09-06T13:36:32.177Z,9.00
2018-09-06T13:39:01.426Z,9.65
2018-09-06T13:41:31.007Z,9.35
2018-09-06T13:44:00.305Z,8.90
2018-09-06T13:46:29.556Z,9.70
2018-09-06T13:48:58.954Z,9.30
2018-09-06T13:51:28.189Z,8.35
2018-09-06T13:53:57.386Z,9.10
2018-09-06T13:56:26.597Z,8.45
2018-09-06T13:58:56.075Z,8.88
2018-09-06T14:01:25.325Z,8.83
2018-09-06T14:03:54.530Z,8.93
2018-09-06T14:06:24.761Z,9.03
2018-09-06T14:08:53.986Z,8.73
2018-09-06T14:11:23.241Z,8.83
2018-09-06T14:13:52.535Z,8.63
2018-09-06T14:16:21.828Z,9.08
2018-09-06T14:18:51.172Z,8.38
2018-09-06T14:21:22.231Z,7.92
2018-09-06T14:23:51.458Z,7.92
2018-09-06T14:26:20.731Z,8.13
2018-09-06T14:28:49.993Z,8.53
2018-09-06T14:31:19.361Z,8.93
2018-09-06T14:33:48.590Z,7.92
2018-09-06T14:36:17.888Z,8.35
2018-09-06T14:38:47.301Z,8.83
2018-09-06T14:41:16.673Z,8.70
2018-09-06T14:43:45.925Z,8.65
2018-09-06T14:46:15.151Z,9.05
2018-09-06T14:48:44.361Z,8.63
2018-09-06T14:51:13.641Z,8.95
2018-09-06T14:53:42.891Z,8.78
2018-09-06T14:56:12.130Z,7.87
2018-09-06T14:58:41.412Z,8.83
2018-09-06T15:01:10.714Z,8.25
2018-09-06T15:03:39.960Z,8.08
2018-09-06T15:06:09.248Z,8.23
2018-09-06T15:08:38.473Z,7.45
2018-09-06T15:11:07.795Z,7.90
2018-09-06T15:13:37.102Z,8.15
2018-09-06T15:16:06.505Z,7.95
2018-09-06T15:18:35.964Z,8.15
2018-09-06T15:21:05.141Z,8.18
2018-09-06T15:23:34.346Z,7.83
2018-09-06T15:26:03.532Z,8.50
2018-09-06T15:28:32.697Z,8.75
2018-09-06T15:31:03.836Z,9.13
2018-09-06T15:33:32.997Z,8.43
2018-09-06T15:36:02.205Z,8.20
2018-09-06T15:38:31.378Z,8.00
2018-09-06T15:41:00.556Z,7.72
2018-09-06T15:43:29.820Z,8.40
2018-09-06T15:45:59.107Z,7.90
2018-09-06T15:48:28.336Z,8.78
2018-09-06T15:50:57.597Z,8.23
2018-09-06T15:53:26.772Z,8.50
2018-09-06T15:55:56.061Z,8.70
2018-09-06T15:58:25.368Z,8.50
2018-09-06T16:00:54.848Z,8.40
2018-09-06T16:03:24.017Z,8.18
2018-09-06T16:05:53.171Z,8.73
2018-09-06T16:08:22.341Z,8.20
2018-09-06T16:10:51.492Z,8.03
2018-09-06T16:13:21.004Z,8.28
2018-09-06T16:15:50.221Z,7.80
2018-09-06T16:18:19.460Z,8.95
2018-09-06T16:20:48.639Z,9.38
2018-09-06T16:23:17.806Z,8.20
2018-09-06T16:25:47.032Z,9.20
2018-09-06T16:28:16.204Z,10.13
2018-09-06T16:30:45.396Z,8.90
2018-09-06T16:33:14.576Z,9.33
2018-09-06T16:35:43.760Z,9.80
2018-09-06T16:38:13.010Z,9.05
2018-09-06T16:40:42.186Z,8.85
2018-09-06T16:43:11.366Z,9.65
2018-09-06T16:45:40.551Z,9.63
2018-09-06T16:48:09.754Z,9.43
2018-09-06T16:50:39.135Z,9.40
2018-09-06T16:53:08.303Z,9.45
2018-09-06T16:55:37.565Z,9.28
2018-09-06T16:58:06.716Z,9.18
2018-09-06T17:00:35.925Z,9.23
2018-09-06T17:03:05.596Z,8.90
2018-09-06T17:05:34.785Z,10.18
2018-09-06T17:08:03.954Z,10.63
2018-09-06T17:10:33.144Z,10.85
2018-09-06T17:13:02.377Z,9.73
2018-09-06T17:15:31.613Z,11.12
2018-09-06T17:18:00.847Z,9.98
2018-09-06T17:20:30.095Z,9.75
2018-09-06T17:22:59.462Z,11.08
2018-09-06T17:25:28.133Z,10.63
2018-09-06T17:27:57.429Z,10.38
2018-09-06T17:30:26.630Z,10.65
2018-09-06T17:32:55.920Z,10.45
2018-09-06T17:35:25.217Z,10.48
2018-09-06T17:37:53.845Z,11.37
2018-09-06T17:40:23.195Z,11.03
2018-09-06T17:42:51.933Z,10.80
2018-09-06T17:45:20.549Z,10.70
2018-09-06T17:47:49.314Z,11.43
2018-09-06T17:50:18.103Z,13.13
2018-09-06T17:52:46.755Z,15.83
2018-09-06T17:55:15.365Z,14.93
2018-09-06T17:57:43.968Z,14.93
2018-09-06T18:00:12.595Z,12.10
2018-09-06T18:02:41.270Z,12.07
2018-09-06T18:05:10.094Z,11.80
2018-09-06T18:07:38.734Z,10.60
2018-09-06T18:10:07.408Z,11.20
2018-09-06T18:12:36.314Z,11.80
2018-09-06T18:15:05.517Z,11.83
2018-09-06T18:17:34.289Z,11.13
2018-09-06T18:20:03.013Z,11.03
2018-09-06T18:22:31.629Z,10.87
2018-09-06T18:25:00.650Z,11.33
2018-09-06T18:27:29.313Z,11.10
2018-09-06T18:29:58.032Z,13.40
2018-09-06T18:32:27.040Z,18.53
2018-09-06T18:34:55.648Z,15.77
2018-09-06T18:37:24.274Z,16.00
2018-09-06T18:39:52.944Z,14.00
2018-09-06T18:42:21.608Z,14.33
2018-09-06T18:44:50.222Z,13.40
2018-09-06T18:47:19.085Z,12.10
2018-09-06T18:49:47.725Z,11.13
2018-09-06T18:52:16.488Z,12.20
2018-09-06T18:54:45.482Z,11.57
2018-09-06T18:57:14.673Z,12.37
2018-09-06T18:59:43.407Z,12.60
2018-09-06T19:02:12.165Z,11.90
2018-09-06T19:04:40.860Z,12.97
2018-09-06T19:07:09.497Z,12.33
2018-09-06T19:09:38.106Z,12.57
2018-09-06T19:12:07.057Z,11.57
2018-09-06T19:14:35.718Z,12.50
2018-09-06T19:17:04.332Z,13.10
2018-09-06T19:19:32.967Z,13.03
2018-09-06T19:22:01.630Z,13.33
2018-09-06T19:24:30.252Z,12.90
2018-09-06T19:26:58.844Z,12.73
2018-09-06T19:29:27.485Z,13.10
2018-09-06T19:31:56.327Z,13.83
2018-09-06T19:34:25.069Z,13.63
2018-09-06T19:36:53.680Z,12.67
2018-09-06T19:39:22.317Z,13.10
2018-09-06T19:41:50.922Z,13.30
2018-09-06T19:44:19.731Z,13.73
2018-09-06T19:46:48.354Z,13.70
2018-09-06T19:49:16.971Z,12.90
2018-09-06T19:51:45.601Z,13.70
2018-09-06T19:54:14.313Z,14.40
2018-09-06T19:56:43.129Z,13.67
2018-09-06T19:59:11.741Z,14.57
2018-09-06T20:01:40.745Z,14.60
2018-09-06T20:04:09.379Z,14.30
2018-09-06T20:06:38.053Z,14.83
2018-09-06T20:09:07.618Z,14.33
2018-09-06T20:11:36.264Z,14.67
2018-09-06T20:14:04.883Z,15.10
2018-09-06T20:16:33.480Z,14.63
2018-09-06T20:19:02.149Z,14.80
2018-09-06T20:21:30.815Z,15.43
2018-09-06T20:23:59.428Z,15.93
2018-09-06T20:26:28.127Z,15.23
2018-09-06T20:28:56.748Z,14.20
2018-09-06T20:31:25.827Z,15.33
2018-09-06T20:33:54.490Z,13.87
2018-09-06T20:36:23.198Z,15.07
2018-09-06T20:38:52.064Z,15.07
2018-09-06T20:41:20.681Z,15.93
2018-09-06T20:43:49.355Z,16.00
2018-09-06T20:46:17.974Z,15.47
2018-09-06T20:48:46.581Z,15.23
2018-09-06T20:51:15.181Z,15.77
2018-09-06T20:53:43.812Z,16.33
2018-09-06T20:56:12.405Z,15.23
2018-09-06T20:58:41.069Z,16.47
2018-09-06T21:01:09.715Z,15.80
2018-09-06T21:03:38.380Z,16.67
2018-09-06T21:06:07.048Z,16.20
2018-09-06T21:08:35.726Z,16.77
2018-09-06T21:11:04.806Z,16.80
2018-09-06T21:13:33.429Z,16.83
2018-09-06T21:16:02.129Z,16.03
2018-09-06T21:18:30.806Z,16.37
2018-09-06T21:20:59.424Z,16.77
2018-09-06T21:23:28.106Z,17.70
2018-09-06T21:25:56.882Z,17.83
2018-09-06T21:28:25.493Z,17.67
2018-09-06T21:30:54.133Z,16.70
2018-09-06T21:33:22.785Z,16.87
2018-09-06T21:35:51.437Z,17.23
2018-09-06T21:38:20.053Z,17.50
2018-09-06T21:40:48.661Z,18.07
2018-09-06T21:43:17.342Z,17.57
2018-09-06T21:45:46.106Z,18.83
2018-09-06T21:48:14.799Z,17.97
2018-09-06T21:50:43.421Z,18.47
2018-09-06T21:53:12.048Z,18.70
2018-09-06T21:55:40.773Z,17.50
2018-09-06T21:58:09.395Z,18.80
2018-09-06T22:00:38.143Z,18.93
2018-09-06T22:03:12.117Z,18.63
2018-09-06T22:05:40.764Z,18.90
2018-09-06T22:08:09.604Z,20.17
2018-09-06T22:10:38.291Z,19.40
2018-09-06T22:13:06.898Z,19.57
2018-09-06T22:15:35.560Z,18.77
2018-09-06T22:18:04.225Z,19.07
2018-09-06T22:20:32.880Z,20.13
2018-09-06T22:23:01.521Z,18.60
2018-09-06T22:25:30.128Z,18.77
2018-09-06T22:27:58.746Z,18.43
2018-09-06T22:30:27.703Z,19.37
2018-09-06T22:32:56.333Z,20.20
2018-09-06T22:35:24.946Z,19.00
2018-09-06T22:37:53.549Z,18.57
2018-09-06T22:40:22.144Z,18.90
2018-09-06T22:42:50.781Z,18.70
2018-09-06T22:45:19.394Z,19.67
2018-09-06T22:47:47.995Z,19.20
2018-09-06T22:50:16.635Z,19.57
2018-09-06T22:52:45.219Z,20.43
2018-09-06T22:55:13.808Z,19.37
2018-09-06T22:57:42.433Z,20.50
2018-09-06T23:00:11.032Z,20.10
2018-09-06T23:02:44.757Z,21.93
2018-09-06T23:05:13.706Z,21.03
2018-09-06T23:07:42.284Z,21.13
2018-09-06T23:10:11.154Z,20.33
2018-09-06T23:12:39.743Z,21.57
2018-09-06T23:15:08.380Z,21.27
2018-09-06T23:17:37.065Z,20.57
2018-09-06T23:20:05.705Z,21.97
2018-09-06T23:22:38.363Z,21.37
2018-09-06T23:25:08.174Z,21.37
2018-09-06T23:27:36.793Z,21.23
2018-09-06T23:30:05.974Z,22.03
2018-09-06T23:32:34.865Z,22.93
2018-09-06T23:35:03.516Z,22.20
2018-09-06T23:37:32.093Z,22.90
2018-09-06T23:40:00.733Z,23.73
2018-09-06T23:42:29.348Z,23.73
2018-09-06T23:44:57.933Z,24.07
2018-09-06T23:47:26.528Z,23.47
2018-09-06T23:49:55.142Z,24.77
2018-09-06T23:52:23.763Z,23.83
2018-09-06T23:54:52.704Z,24.17
2018-09-06T23:57:21.282Z,25.47
2018-09-06T23:59:49.857Z,24.60
